createdAt,value
2023-05-14T00:00:09.138Z,281.00
2023-05-14T00:01:09.135Z,281.00
2023-05-14T00:02:09.146Z,283.00
2023-05-14T00:03:09.290Z,283.00
2023-05-14T00:04:09.168Z,283.00
2023-05-14T00:05:09.140Z,279.00
2023-05-14T00:06:09.154Z,277.00
2023-05-14T00:07:09.174Z,278.00
2023-05-14T00:08:09.149Z,275.00
2023-05-14T00:09:09.185Z,274.00
2023-05-14T00:10:09.156Z,275.00
2023-05-14T00:11:09.207Z,276.00
2023-05-14T00:12:09.168Z,277.00
2023-05-14T00:13:09.188Z,276.00
2023-05-14T00:14:09.187Z,275.00
2023-05-14T00:15:09.165Z,277.00
2023-05-14T00:16:09.244Z,279.00
2023-05-14T00:17:09.217Z,280.00
2023-05-14T00:18:09.277Z,279.00
2023-05-14T00:19:09.432Z,280.00
2023-05-14T00:20:09.250Z,279.00
2023-05-14T00:21:09.249Z,276.00
2023-05-14T00:22:09.259Z,276.00
2023-05-14T00:23:09.408Z,273.00
2023-05-14T00:24:09.253Z,272.00
2023-05-14T00:25:09.320Z,271.00
2023-05-14T00:26:09.272Z,272.00
2023-05-14T00:27:09.292Z,271.00
2023-05-14T00:28:09.282Z,272.00
2023-05-14T00:29:09.291Z,271.00
2023-05-14T00:30:09.269Z,269.00
2023-05-14T00:31:09.336Z,271.00
2023-05-14T00:32:09.331Z,270.00
2023-05-14T00:33:09.317Z,272.00
2023-05-14T00:34:09.259Z,272.00
2023-05-14T00:35:09.336Z,273.00
2023-05-14T00:36:09.303Z,272.00
2023-05-14T00:37:09.281Z,271.00
2023-05-14T00:38:09.357Z,272.00
2023-05-14T00:39:09.314Z,273.00
2023-05-14T00:40:09.362Z,271.00
2023-05-14T00:41:09.328Z,270.00
2023-05-14T00:42:09.303Z,272.00
2023-05-14T00:43:09.323Z,275.00
2023-05-14T00:44:09.337Z,275.00
2023-05-14T00:45:09.351Z,276.00
2023-05-14T00:46:09.366Z,276.00
2023-05-14T00:47:09.420Z,275.00
2023-05-14T00:48:09.443Z,275.00
2023-05-14T00:49:09.353Z,277.00
2023-05-14T00:50:09.364Z,276.00
2023-05-14T00:51:09.357Z,275.00
2023-05-14T00:52:09.384Z,275.00
2023-05-14T00:53:09.402Z,276.00
2023-05-14T00:54:09.413Z,274.00
2023-05-14T00:55:09.398Z,274.00
2023-05-14T00:56:09.422Z,275.00
2023-05-14T00:57:09.425Z,276.00
2023-05-14T00:58:09.418Z,276.00
2023-05-14T00:59:09.425Z,278.00
2023-05-14T01:00:09.437Z,278.00
2023-05-14T01:01:09.499Z,278.00
2023-05-14T01:02:09.456Z,276.00
2023-05-14T01:03:09.551Z,278.00
2023-05-14T01:04:09.431Z,277.00
2023-05-14T01:05:09.424Z,277.00
2023-05-14T01:06:09.429Z,276.00
2023-05-14T01:07:09.440Z,275.00
2023-05-14T01:08:09.458Z,277.00
2023-05-14T01:09:09.453Z,276.00
2023-05-14T01:10:09.446Z,275.00
2023-05-14T01:11:09.480Z,274.00
2023-05-14T01:12:09.482Z,273.00
2023-05-14T01:13:09.502Z,273.00
2023-05-14T01:14:09.453Z,276.00
2023-05-14T01:15:09.467Z,276.00
2023-05-14T01:16:09.529Z,275.00
2023-05-14T01:17:09.510Z,273.00
2023-05-14T01:18:09.627Z,275.00
2023-05-14T01:19:09.688Z,274.00
2023-05-14T01:20:09.506Z,272.00
2023-05-14T01:21:09.471Z,273.00
2023-05-14T01:22:09.539Z,275.00
2023-05-14T01:23:09.505Z,278.00
2023-05-14T01:24:09.555Z,278.00
2023-05-14T01:25:09.517Z,276.00
2023-05-14T01:26:09.578Z,274.00
2023-05-14T01:27:09.593Z,275.00
2023-05-14T01:28:09.587Z,277.00
2023-05-14T01:29:09.596Z,274.00
2023-05-14T01:30:09.573Z,273.00
2023-05-14T01:31:09.598Z,272.00
2023-05-14T01:32:09.758Z,272.00
2023-05-14T01:33:09.645Z,271.00
2023-05-14T01:34:09.651Z,270.00
2023-05-14T01:35:09.696Z,271.00
2023-05-14T01:36:09.678Z,270.00
2023-05-14T01:37:09.688Z,271.00
2023-05-14T01:38:09.727Z,271.00
2023-05-14T01:39:09.732Z,267.00
2023-05-14T01:40:09.724Z,267.00
2023-05-14T01:41:09.712Z,268.00
2023-05-14T01:42:09.777Z,269.00
2023-05-14T01:43:09.805Z,268.00
2023-05-14T01:44:09.767Z,269.00
2023-05-14T01:45:09.807Z,270.00
2023-05-14T01:46:09.915Z,272.00
2023-05-14T01:47:09.820Z,273.00
2023-05-14T01:48:09.874Z,273.00
2023-05-14T01:49:09.848Z,272.00
2023-05-14T01:50:09.872Z,272.00
2023-05-14T01:51:09.878Z,272.00
2023-05-14T01:52:09.880Z,271.00
2023-05-14T01:53:09.932Z,271.00
2023-05-14T01:54:09.889Z,273.00
2023-05-14T01:55:09.941Z,276.00
2023-05-14T01:56:09.977Z,275.00
2023-05-14T01:57:10.071Z,275.00
2023-05-14T01:58:09.996Z,274.00
2023-05-14T01:59:10.009Z,277.00
2023-05-14T02:00:10.045Z,275.00
2023-05-14T02:01:10.093Z,277.00
2023-05-14T02:02:10.078Z,275.00
2023-05-14T02:03:10.122Z,275.00
2023-05-14T02:04:10.118Z,277.00
2023-05-14T02:05:10.148Z,278.00
2023-05-14T02:06:10.150Z,279.00
2023-05-14T02:07:10.136Z,281.00
2023-05-14T02:08:10.158Z,279.00
2023-05-14T02:09:10.173Z,279.00
2023-05-14T02:10:10.210Z,277.00
2023-05-14T02:11:10.223Z,280.00
2023-05-14T02:12:10.234Z,278.00
2023-05-14T02:13:10.317Z,275.00
2023-05-14T02:14:10.274Z,273.00
2023-05-14T02:15:10.318Z,274.00
2023-05-14T02:16:10.373Z,275.00
2023-05-14T02:17:10.312Z,275.00
2023-05-14T02:18:10.420Z,272.00
2023-05-14T02:19:10.502Z,273.00
2023-05-14T02:20:10.540Z,270.00
2023-05-14T02:21:10.417Z,271.00
2023-05-14T02:22:10.452Z,274.00
2023-05-14T02:23:10.474Z,277.00
2023-05-14T02:24:10.524Z,277.00
2023-05-14T02:25:10.514Z,276.00
2023-05-14T02:26:10.540Z,274.00
2023-05-14T02:27:10.518Z,273.00
2023-05-14T02:28:10.590Z,273.00
2023-05-14T02:29:10.582Z,273.00
2023-05-14T02:30:10.645Z,272.00
2023-05-14T02:31:10.611Z,272.00
2023-05-14T02:32:10.668Z,274.00
2023-05-14T02:33:10.700Z,274.00
2023-05-14T02:34:10.701Z,274.00
2023-05-14T02:35:10.722Z,273.00
2023-05-14T02:36:10.728Z,275.00
2023-05-14T02:37:10.764Z,276.00
2023-05-14T02:38:10.788Z,278.00
2023-05-14T02:39:10.746Z,277.00
2023-05-14T02:40:10.798Z,280.00
2023-05-14T02:41:10.796Z,278.00
2023-05-14T02:42:10.836Z,277.00
2023-05-14T02:43:10.840Z,278.00
2023-05-14T02:44:10.882Z,278.00
2023-05-14T02:45:10.939Z,279.00
2023-05-14T02:46:10.947Z,277.00
2023-05-14T02:47:11.053Z,280.00
2023-05-14T02:48:11.030Z,279.00
2023-05-14T02:49:10.994Z,277.00
2023-05-14T02:50:10.996Z,276.00
2023-05-14T02:51:11.049Z,276.00
2023-05-14T02:52:11.041Z,276.00
2023-05-14T02:53:11.104Z,274.00
2023-05-14T02:54:11.102Z,276.00
2023-05-14T02:55:11.125Z,277.00
2023-05-14T02:56:11.166Z,278.00
2023-05-14T02:57:11.186Z,277.00
2023-05-14T02:58:11.185Z,277.00
2023-05-14T02:59:11.198Z,278.00
2023-05-14T03:00:11.224Z,279.00
2023-05-14T03:01:11.268Z,279.00
2023-05-14T03:02:11.327Z,279.00
2023-05-14T03:03:11.354Z,277.00
2023-05-14T03:04:11.340Z,277.00
2023-05-14T03:05:11.340Z,276.00
2023-05-14T03:06:11.369Z,275.00
2023-05-14T03:07:11.373Z,276.00
2023-05-14T03:08:11.416Z,277.00
2023-05-14T03:09:11.471Z,279.00
2023-05-14T03:10:11.438Z,278.00
2023-05-14T03:11:11.492Z,277.00
2023-05-14T03:12:11.526Z,276.00
2023-05-14T03:13:11.553Z,276.00
2023-05-14T03:14:11.578Z,276.00
2023-05-14T03:15:11.657Z,273.00
2023-05-14T03:16:11.681Z,275.00
2023-05-14T03:17:11.820Z,274.00
2023-05-14T03:18:11.673Z,275.00
2023-05-14T03:19:11.867Z,277.00
2023-05-14T03:20:11.688Z,275.00
2023-05-14T03:21:11.714Z,275.00
2023-05-14T03:22:11.777Z,276.00
2023-05-14T03:23:11.810Z,273.00
2023-05-14T03:24:11.805Z,270.00
2023-05-14T03:25:11.862Z,270.00
2023-05-14T03:26:11.887Z,272.00
2023-05-14T03:27:11.948Z,271.00
2023-05-14T03:28:11.947Z,272.00
2023-05-14T03:29:11.926Z,274.00
2023-05-14T03:30:11.998Z,274.00
2023-05-14T03:31:12.070Z,275.00
2023-05-14T03:32:12.021Z,271.00
2023-05-14T03:33:12.061Z,273.00
2023-05-14T03:34:12.090Z,273.00
2023-05-14T03:35:12.148Z,275.00
2023-05-14T03:36:12.164Z,276.00
2023-05-14T03:37:12.166Z,274.00
2023-05-14T03:38:12.192Z,274.00
2023-05-14T03:39:12.209Z,272.00
2023-05-14T03:40:12.264Z,274.00
2023-05-14T03:41:12.297Z,274.00
2023-05-14T03:42:12.354Z,276.00
2023-05-14T03:43:12.360Z,273.00
2023-05-14T03:44:12.342Z,272.00
2023-05-14T03:45:12.405Z,273.00
2023-05-14T03:46:12.420Z,274.00
2023-05-14T03:47:12.439Z,275.00
2023-05-14T03:48:12.545Z,276.00
2023-05-14T03:49:12.576Z,277.00
2023-05-14T03:50:12.548Z,277.00
2023-05-14T03:51:12.595Z,281.00
2023-05-14T03:52:12.610Z,280.00
2023-05-14T03:53:12.603Z,277.00
2023-05-14T03:54:12.644Z,276.00
2023-05-14T03:55:12.642Z,276.00
2023-05-14T03:56:12.706Z,275.00
2023-05-14T03:57:12.736Z,275.00
2023-05-14T03:58:12.782Z,275.00
2023-05-14T03:59:12.794Z,274.00
2023-05-14T04:00:12.828Z,271.00
2023-05-14T04:01:12.903Z,275.00
2023-05-14T04:02:12.936Z,274.00
2023-05-14T04:03:13.001Z,273.00
2023-05-14T04:04:12.968Z,274.00
2023-05-14T04:05:12.989Z,274.00
2023-05-14T04:06:13.009Z,274.00
2023-05-14T04:07:13.054Z,274.00
2023-05-14T04:08:13.098Z,273.00
2023-05-14T04:09:13.093Z,272.00
2023-05-14T04:10:13.170Z,273.00
2023-05-14T04:11:13.180Z,273.00
2023-05-14T04:12:13.183Z,274.00
2023-05-14T04:13:13.229Z,275.00
2023-05-14T04:14:13.264Z,275.00
2023-05-14T04:15:13.276Z,276.00
2023-05-14T04:16:13.380Z,276.00
2023-05-14T04:17:13.355Z,274.00
2023-05-14T04:18:13.414Z,275.00
2023-05-14T04:19:13.521Z,277.00
2023-05-14T04:20:13.403Z,278.00
2023-05-14T04:21:13.478Z,277.00
2023-05-14T04:22:13.498Z,275.00
2023-05-14T04:23:13.536Z,274.00
2023-05-14T04:24:13.587Z,275.00
2023-05-14T04:25:13.582Z,277.00
2023-05-14T04:26:13.633Z,276.00
2023-05-14T04:27:13.650Z,276.00
2023-05-14T04:28:13.693Z,275.00
2023-05-14T04:29:13.747Z,274.00
2023-05-14T04:30:13.803Z,274.00
2023-05-14T04:31:13.808Z,274.00
2023-05-14T04:32:13.833Z,275.00
2023-05-14T04:33:13.839Z,276.00
2023-05-14T04:34:13.873Z,276.00
2023-05-14T04:35:13.882Z,276.00
2023-05-14T04:36:13.922Z,277.00
2023-05-14T04:37:13.987Z,275.00
2023-05-14T04:38:13.983Z,273.00
2023-05-14T04:39:14.007Z,276.00
2023-05-14T04:40:14.043Z,276.00
2023-05-14T04:41:14.050Z,275.00
2023-05-14T04:42:14.097Z,275.00
2023-05-14T04:43:14.102Z,274.00
2023-05-14T04:44:14.145Z,274.00
2023-05-14T04:45:14.181Z,273.00
2023-05-14T04:46:14.281Z,274.00
2023-05-14T04:47:14.219Z,275.00
2023-05-14T04:48:14.270Z,275.00
2023-05-14T04:49:14.242Z,275.00
2023-05-14T04:50:14.387Z,276.00
2023-05-14T04:51:14.269Z,275.00
2023-05-14T04:52:14.327Z,277.00
2023-05-14T04:53:14.372Z,277.00
2023-05-14T04:54:14.380Z,278.00
2023-05-14T04:55:14.407Z,278.00
2023-05-14T04:56:14.398Z,278.00
2023-05-14T04:57:14.412Z,277.00
2023-05-14T04:58:14.453Z,276.00
2023-05-14T04:59:14.468Z,275.00
2023-05-14T05:00:14.501Z,276.00
2023-05-14T05:01:14.568Z,275.00
2023-05-14T05:02:14.544Z,273.00
2023-05-14T05:03:14.719Z,271.00
2023-05-14T05:04:14.621Z,269.00
2023-05-14T05:05:14.627Z,268.00
2023-05-14T05:06:14.624Z,267.00
2023-05-14T05:07:14.663Z,266.00
2023-05-14T05:08:14.691Z,265.00
2023-05-14T05:09:14.700Z,268.00
2023-05-14T05:10:14.768Z,269.00
2023-05-14T05:11:14.750Z,270.00
2023-05-14T05:12:14.779Z,270.00
2023-05-14T05:13:14.783Z,272.00
2023-05-14T05:14:14.815Z,273.00
2023-05-14T05:15:14.877Z,276.00
2023-05-14T05:16:14.962Z,277.00
2023-05-14T05:17:14.918Z,277.00
2023-05-14T05:18:14.933Z,278.00
2023-05-14T05:19:15.048Z,278.00
2023-05-14T05:20:14.951Z,276.00
2023-05-14T05:21:14.981Z,274.00
2023-05-14T05:22:15.009Z,275.00
2023-05-14T05:23:15.139Z,272.00
2023-05-14T05:24:15.080Z,271.00
2023-05-14T05:25:15.154Z,271.00
2023-05-14T05:26:15.155Z,274.00
2023-05-14T05:27:15.152Z,273.00
2023-05-14T05:28:15.190Z,274.00
2023-05-14T05:29:15.175Z,273.00
2023-05-14T05:30:15.266Z,273.00
2023-05-14T05:31:16.576Z,275.00
2023-05-14T05:32:15.282Z,275.00
2023-05-14T05:33:15.325Z,273.00
2023-05-14T05:34:15.302Z,274.00
2023-05-14T05:35:15.354Z,274.00
2023-05-14T05:36:15.358Z,274.00
2023-05-14T05:37:15.433Z,274.00
2023-05-14T05:38:15.473Z,272.00
2023-05-14T05:39:15.486Z,274.00
2023-05-14T05:40:15.479Z,272.00
2023-05-14T05:41:15.474Z,274.00
2023-05-14T05:42:15.565Z,273.00
2023-05-14T05:43:15.540Z,273.00
2023-05-14T05:44:15.605Z,269.00
2023-05-14T05:45:15.609Z,269.00
2023-05-14T05:46:15.659Z,267.00
2023-05-14T05:47:15.646Z,269.00
2023-05-14T05:48:15.684Z,269.00
2023-05-14T05:49:15.709Z,268.00
2023-05-14T05:50:15.696Z,269.00
2023-05-14T05:51:15.733Z,270.00
2023-05-14T05:52:15.767Z,270.00
2023-05-14T05:53:15.786Z,270.00
2023-05-14T05:54:15.805Z,269.00
2023-05-14T05:55:15.859Z,268.00
2023-05-14T05:56:15.821Z,269.00
2023-05-14T05:57:15.865Z,271.00
2023-05-14T05:58:15.916Z,270.00
2023-05-14T05:59:15.921Z,268.00
2023-05-14T06:00:15.919Z,268.00
2023-05-14T06:01:15.986Z,270.00
2023-05-14T06:02:16.051Z,271.00
2023-05-14T06:03:16.040Z,274.00
2023-05-14T06:04:16.056Z,274.00
2023-05-14T06:05:16.129Z,273.00
2023-05-14T06:06:16.080Z,273.00
2023-05-14T06:07:16.061Z,274.00
2023-05-14T06:08:16.159Z,273.00
2023-05-14T06:09:16.132Z,272.00
2023-05-14T06:10:16.163Z,271.00
2023-05-14T06:11:16.175Z,271.00
2023-05-14T06:12:16.192Z,271.00
2023-05-14T06:13:16.285Z,272.00
2023-05-14T06:14:16.234Z,274.00
2023-05-14T06:15:16.234Z,275.00
2023-05-14T06:16:16.299Z,279.00
2023-05-14T06:17:16.279Z,277.00
2023-05-14T06:18:16.274Z,277.00
2023-05-14T06:19:16.426Z,277.00
2023-05-14T06:20:16.325Z,275.00
2023-05-14T06:21:16.384Z,273.00
2023-05-14T06:22:16.405Z,273.00
2023-05-14T06:23:16.387Z,271.00
2023-05-14T06:24:16.445Z,272.00
2023-05-14T06:25:16.435Z,273.00
2023-05-14T06:26:16.437Z,273.00
2023-05-14T06:27:16.487Z,272.00
2023-05-14T06:28:16.492Z,271.00
2023-05-14T06:29:16.490Z,271.00
2023-05-14T06:30:16.514Z,272.00
2023-05-14T06:31:16.534Z,268.00
2023-05-14T06:32:16.580Z,268.00
2023-05-14T06:33:17.011Z,269.00
2023-05-14T06:34:16.561Z,269.00
2023-05-14T06:35:16.590Z,271.00
2023-05-14T06:36:16.607Z,271.00
2023-05-14T06:37:16.613Z,273.00
2023-05-14T06:38:16.662Z,272.00
2023-05-14T06:39:16.644Z,270.00
2023-05-14T06:40:16.635Z,269.00
2023-05-14T06:41:16.682Z,268.00
2023-05-14T06:42:16.687Z,267.00
2023-05-14T06:43:16.701Z,268.00
2023-05-14T06:44:16.706Z,266.00
2023-05-14T06:45:16.734Z,265.00
2023-05-14T06:46:16.734Z,264.00
2023-05-14T06:47:16.761Z,264.00
2023-05-14T06:48:16.825Z,266.00
2023-05-14T06:49:16.868Z,267.00
2023-05-14T06:50:16.795Z,268.00
2023-05-14T06:51:16.813Z,268.00
2023-05-14T06:52:16.825Z,267.00
2023-05-14T06:53:16.874Z,265.00
2023-05-14T06:54:16.835Z,266.00
2023-05-14T06:55:16.870Z,264.00
2023-05-14T06:56:16.912Z,264.00
2023-05-14T06:57:16.884Z,263.00
2023-05-14T06:58:16.967Z,263.00
2023-05-14T06:59:16.950Z,264.00
2023-05-14T07:00:16.977Z,264.00
2023-05-14T07:01:17.118Z,265.00
2023-05-14T07:02:16.965Z,265.00
2023-05-14T07:03:16.999Z,264.00
2023-05-14T07:04:17.033Z,264.00
2023-05-14T07:05:17.006Z,264.00
2023-05-14T07:06:17.021Z,264.00
2023-05-14T07:07:17.021Z,265.00
2023-05-14T07:08:17.071Z,266.00
2023-05-14T07:09:17.044Z,266.00
2023-05-14T07:10:17.023Z,264.00
2023-05-14T07:11:17.051Z,265.00
2023-05-14T07:12:17.044Z,265.00
2023-05-14T07:13:17.244Z,266.00
2023-05-14T07:14:17.111Z,267.00
2023-05-14T07:15:17.141Z,269.00
2023-05-14T07:16:17.093Z,269.00
2023-05-14T07:17:17.225Z,268.00
2023-05-14T07:18:17.188Z,265.00
2023-05-14T07:19:17.279Z,264.00
2023-05-14T07:20:17.227Z,263.00
2023-05-14T07:21:17.156Z,262.00
2023-05-14T07:22:17.166Z,264.00
2023-05-14T07:23:19.203Z,263.00
2023-05-14T07:24:17.182Z,266.00
2023-05-14T07:25:17.198Z,264.00
2023-05-14T07:26:17.150Z,266.00
2023-05-14T07:27:17.180Z,266.00
2023-05-14T07:28:17.166Z,267.00
2023-05-14T07:29:17.124Z,266.00
2023-05-14T07:30:17.143Z,267.00
2023-05-14T07:31:17.163Z,266.00
2023-05-14T07:32:17.132Z,267.00
2023-05-14T07:33:17.127Z,268.00
2023-05-14T07:34:17.113Z,269.00
2023-05-14T07:35:17.103Z,266.00
2023-05-14T07:36:17.103Z,266.00
2023-05-14T07:37:17.086Z,266.00
2023-05-14T07:38:17.088Z,267.00
2023-05-14T07:39:17.065Z,268.00
2023-05-14T07:40:17.072Z,269.00
2023-05-14T07:41:17.079Z,270.00
2023-05-14T07:42:27.958Z,269.00
2023-05-14T07:43:18.041Z,268.00
2023-05-14T07:44:17.068Z,269.00
2023-05-14T07:45:17.027Z,269.00
2023-05-14T07:46:17.061Z,268.00
2023-05-14T07:47:17.150Z,268.00
2023-05-14T07:48:17.032Z,267.00
2023-05-14T07:49:17.034Z,269.00
2023-05-14T07:50:17.001Z,269.00
2023-05-14T07:51:17.062Z,270.00
2023-05-14T07:52:16.971Z,269.00
2023-05-14T07:53:16.979Z,269.00
2023-05-14T07:54:17.013Z,269.00
2023-05-14T07:55:16.974Z,267.00
2023-05-14T07:56:17.010Z,264.00
2023-05-14T07:57:16.945Z,265.00
2023-05-14T07:58:16.947Z,264.00
2023-05-14T07:59:16.912Z,264.00
2023-05-14T08:00:16.950Z,265.00
2023-05-14T08:01:16.897Z,264.00
2023-05-14T08:02:17.290Z,264.00
2023-05-14T08:03:16.976Z,264.00
2023-05-14T08:04:17.046Z,266.00
2023-05-14T08:05:16.907Z,264.00
2023-05-14T08:06:16.893Z,264.00
2023-05-14T08:07:16.910Z,261.00
2023-05-14T08:08:16.877Z,263.00
2023-05-14T08:09:16.902Z,265.00
2023-05-14T08:10:16.921Z,267.00
2023-05-14T08:11:17.051Z,266.00
2023-05-14T08:12:17.066Z,266.00
2023-05-14T08:13:17.049Z,265.00
2023-05-14T08:14:17.129Z,265.00
2023-05-14T08:15:17.137Z,262.00
2023-05-14T08:16:17.205Z,262.00
2023-05-14T08:17:17.285Z,264.00
2023-05-14T08:18:17.257Z,265.00
2023-05-14T08:19:17.376Z,267.00
2023-05-14T08:20:17.334Z,267.00
2023-05-14T08:21:17.421Z,265.00
2023-05-14T08:22:17.448Z,263.00
2023-05-14T08:23:17.501Z,259.00
2023-05-14T08:24:17.569Z,260.00
2023-05-14T08:25:17.677Z,263.00
2023-05-14T08:26:17.668Z,261.00
2023-05-14T08:27:17.797Z,261.00
2023-05-14T08:28:17.839Z,262.00
2023-05-14T08:29:17.863Z,260.00
2023-05-14T08:30:17.890Z,260.00
2023-05-14T08:31:18.023Z,258.00
2023-05-14T08:32:23.201Z,259.00
2023-05-14T08:33:19.036Z,260.00
2023-05-14T08:34:18.012Z,260.00
2023-05-14T08:35:18.012Z,261.00
2023-05-14T08:36:18.004Z,262.00
2023-05-14T08:37:18.005Z,261.00
2023-05-14T08:38:17.978Z,259.00
2023-05-14T08:39:17.984Z,257.00
2023-05-14T08:40:17.991Z,255.00
2023-05-14T08:41:18.034Z,253.00
2023-05-14T08:42:18.096Z,255.00
2023-05-14T08:43:18.154Z,256.00
2023-05-14T08:44:18.188Z,255.00
2023-05-14T08:45:18.247Z,256.00
2023-05-14T08:46:18.275Z,257.00
2023-05-14T08:47:18.347Z,256.00
2023-05-14T08:48:18.423Z,258.00
2023-05-14T08:49:18.458Z,259.00
2023-05-14T08:50:19.924Z,260.00
2023-05-14T08:51:18.479Z,260.00
2023-05-14T08:52:18.497Z,260.00
2023-05-14T08:53:18.484Z,260.00
2023-05-14T08:54:18.480Z,259.00
2023-05-14T08:55:18.518Z,262.00
2023-05-14T08:56:18.436Z,264.00
2023-05-14T08:57:18.453Z,263.00
2023-05-14T08:58:18.454Z,264.00
2023-05-14T08:59:18.439Z,263.00
2023-05-14T09:00:18.430Z,261.00
2023-05-14T09:01:18.553Z,261.00
2023-05-14T09:02:18.429Z,262.00
2023-05-14T09:03:18.443Z,260.00
2023-05-14T09:04:18.434Z,260.00
2023-05-14T09:05:18.415Z,258.00
2023-05-14T09:06:18.423Z,256.00
2023-05-14T09:07:18.439Z,256.00
2023-05-14T09:08:18.342Z,256.00
2023-05-14T09:09:18.395Z,254.00
2023-05-14T09:10:18.362Z,255.00
2023-05-14T09:11:18.335Z,257.00
2023-05-14T09:12:18.388Z,256.00
2023-05-14T09:13:18.362Z,256.00
2023-05-14T09:14:18.349Z,258.00
2023-05-14T09:15:18.318Z,259.00
2023-05-14T09:16:18.385Z,260.00
2023-05-14T09:17:18.345Z,258.00
2023-05-14T09:18:18.334Z,260.00
2023-05-14T09:19:18.350Z,258.00
2023-05-14T09:20:18.291Z,255.00
2023-05-14T09:21:18.323Z,254.00
2023-05-14T09:22:18.267Z,256.00
2023-05-14T09:23:18.261Z,256.00
2023-05-14T09:24:18.282Z,256.00
2023-05-14T09:25:18.251Z,257.00
2023-05-14T09:26:18.292Z,257.00
2023-05-14T09:27:18.342Z,257.00
2023-05-14T09:28:18.380Z,258.00
2023-05-14T09:29:18.503Z,258.00
2023-05-14T09:30:18.498Z,259.00
2023-05-14T09:31:18.650Z,258.00
2023-05-14T09:32:18.581Z,259.00
2023-05-14T09:33:18.626Z,262.00
2023-05-14T09:34:18.664Z,265.00
2023-05-14T09:35:18.722Z,263.00
2023-05-14T09:36:18.751Z,263.00
2023-05-14T09:37:18.828Z,262.00
2023-05-14T09:38:18.868Z,261.00
2023-05-14T09:39:18.922Z,262.00
2023-05-14T09:40:18.949Z,262.00
2023-05-14T09:41:18.975Z,261.00
2023-05-14T09:42:19.010Z,259.00
2023-05-14T09:43:19.082Z,258.00
2023-05-14T09:44:19.133Z,261.00
2023-05-14T09:45:19.150Z,263.00
2023-05-14T09:46:19.204Z,262.00
2023-05-14T09:47:19.255Z,261.00
2023-05-14T09:48:19.278Z,261.00
2023-05-14T09:49:19.315Z,260.00
2023-05-14T09:50:19.321Z,259.00
2023-05-14T09:51:19.733Z,257.00
2023-05-14T09:52:19.416Z,257.00
2023-05-14T09:53:19.410Z,256.00
2023-05-14T09:54:19.473Z,256.00
2023-05-14T09:55:19.508Z,256.00
2023-05-14T09:56:19.520Z,258.00
2023-05-14T09:57:19.577Z,256.00
2023-05-14T09:58:19.615Z,257.00
2023-05-14T09:59:19.785Z,256.00
2023-05-14T10:00:19.640Z,256.00
2023-05-14T10:01:19.765Z,257.00
2023-05-14T10:02:19.739Z,258.00
2023-05-14T10:03:20.176Z,258.00
2023-05-14T10:04:19.862Z,257.00
2023-05-14T10:05:19.881Z,258.00
2023-05-14T10:06:19.892Z,259.00
2023-05-14T10:07:19.951Z,260.00
2023-05-14T10:08:19.959Z,257.00
2023-05-14T10:09:19.969Z,258.00
2023-05-14T10:10:20.123Z,261.00
2023-05-14T10:11:20.022Z,260.00
2023-05-14T10:12:20.028Z,259.00
2023-05-14T10:13:20.081Z,258.00
2023-05-14T10:14:20.104Z,259.00
2023-05-14T10:15:20.172Z,261.00
2023-05-14T10:16:20.289Z,259.00
2023-05-14T10:17:20.256Z,256.00
2023-05-14T10:18:20.267Z,257.00
2023-05-14T10:19:20.367Z,259.00
2023-05-14T10:20:20.337Z,260.00
2023-05-14T10:21:20.301Z,260.00
2023-05-14T10:22:20.339Z,257.00
2023-05-14T10:23:20.378Z,255.00
2023-05-14T10:24:20.386Z,254.00
2023-05-14T10:25:20.427Z,253.00
2023-05-14T10:26:22.358Z,252.00
2023-05-14T10:27:20.456Z,252.00
2023-05-14T10:28:20.445Z,254.00
2023-05-14T10:29:20.423Z,254.00
2023-05-14T10:30:20.433Z,254.00
2023-05-14T10:31:20.430Z,254.00
2023-05-14T10:32:20.410Z,254.00
2023-05-14T10:33:20.378Z,255.00
2023-05-14T10:34:20.403Z,251.00
2023-05-14T10:35:20.444Z,250.00
2023-05-14T10:36:20.385Z,250.00
2023-05-14T10:37:20.384Z,251.00
2023-05-14T10:38:20.391Z,253.00
2023-05-14T10:39:20.355Z,254.00
2023-05-14T10:40:20.354Z,253.00
2023-05-14T10:41:20.352Z,255.00
2023-05-14T10:42:20.305Z,256.00
2023-05-14T10:43:20.315Z,257.00
2023-05-14T10:44:20.734Z,256.00
2023-05-14T10:45:20.330Z,256.00
2023-05-14T10:46:20.378Z,256.00
2023-05-14T10:47:20.308Z,255.00
2023-05-14T10:48:20.372Z,254.00
2023-05-14T10:49:28.914Z,255.00
2023-05-14T10:50:21.268Z,256.00
2023-05-14T10:51:20.286Z,258.00
2023-05-14T10:52:20.273Z,256.00
2023-05-14T10:53:20.262Z,257.00
2023-05-14T10:54:20.243Z,255.00
2023-05-14T10:55:20.271Z,253.00
2023-05-14T10:56:20.270Z,252.00
2023-05-14T10:57:20.248Z,253.00
2023-05-14T10:58:20.200Z,255.00
2023-05-14T10:59:20.211Z,255.00
2023-05-14T11:00:20.188Z,254.00
2023-05-14T11:01:20.234Z,252.00
2023-05-14T11:02:20.241Z,253.00
2023-05-14T11:03:20.211Z,253.00
2023-05-14T11:04:20.256Z,253.00
2023-05-14T11:05:20.147Z,251.00
2023-05-14T11:06:20.164Z,253.00
2023-05-14T11:07:20.144Z,252.00
2023-05-14T11:08:20.156Z,253.00
2023-05-14T11:09:20.149Z,254.00
2023-05-14T11:10:20.140Z,254.00
2023-05-14T11:11:20.146Z,255.00
2023-05-14T11:12:20.167Z,257.00
2023-05-14T11:13:20.174Z,258.00
2023-05-14T11:14:20.192Z,259.00
2023-05-14T11:15:20.202Z,257.00
2023-05-14T11:16:23.852Z,257.00
2023-05-14T11:17:20.253Z,255.00
2023-05-14T11:18:20.217Z,254.00
2023-05-14T11:19:20.218Z,252.00
2023-05-14T11:20:20.192Z,253.00
2023-05-14T11:21:20.233Z,254.00
2023-05-14T11:22:20.203Z,252.00
2023-05-14T11:23:20.170Z,251.00
2023-05-14T11:24:20.204Z,255.00
2023-05-14T11:25:20.238Z,254.00
2023-05-14T11:26:21.660Z,253.00
2023-05-14T11:27:20.137Z,253.00
2023-05-14T11:28:20.139Z,254.00
2023-05-14T11:29:20.142Z,252.00
2023-05-14T11:30:20.183Z,252.00
2023-05-14T11:31:20.118Z,254.00
2023-05-14T11:32:20.120Z,256.00
2023-05-14T11:33:20.161Z,257.00
2023-05-14T11:34:20.110Z,256.00
2023-05-14T11:35:20.091Z,255.00
2023-05-14T11:36:20.101Z,254.00
2023-05-14T11:37:20.073Z,252.00
2023-05-14T11:38:20.072Z,248.00
2023-05-14T11:39:20.050Z,250.00
2023-05-14T11:40:20.052Z,250.00
2023-05-14T11:41:20.019Z,251.00
2023-05-14T11:42:20.087Z,248.00
2023-05-14T11:43:20.073Z,248.00
2023-05-14T11:44:20.013Z,249.00
2023-05-14T11:45:20.023Z,249.00
2023-05-14T11:46:20.168Z,250.00
2023-05-14T11:47:20.006Z,251.00
2023-05-14T11:48:20.011Z,254.00
2023-05-14T11:49:19.983Z,252.00
2023-05-14T11:50:20.005Z,253.00
2023-05-14T11:51:19.991Z,253.00
2023-05-14T11:52:19.968Z,253.00
2023-05-14T11:53:19.951Z,254.00
2023-05-14T11:54:19.939Z,254.00
2023-05-14T11:55:19.948Z,253.00
2023-05-14T11:56:19.932Z,251.00
2023-05-14T11:57:19.956Z,251.00
2023-05-14T11:58:19.941Z,250.00
2023-05-14T11:59:19.893Z,251.00
2023-05-14T12:00:19.924Z,252.00
2023-05-14T12:01:19.883Z,250.00
2023-05-14T12:02:20.013Z,250.00
2023-05-14T12:03:20.114Z,252.00
2023-05-14T12:04:19.939Z,252.00
2023-05-14T12:05:19.881Z,254.00
2023-05-14T12:06:19.860Z,257.00
2023-05-14T12:07:19.984Z,256.00
2023-05-14T12:08:19.897Z,255.00
2023-05-14T12:09:19.828Z,255.00
2023-05-14T12:10:19.844Z,256.00
2023-05-14T12:11:19.849Z,256.00
2023-05-14T12:12:19.859Z,256.00
2023-05-14T12:13:19.870Z,255.00
2023-05-14T12:14:19.881Z,252.00
2023-05-14T12:15:19.901Z,253.00
2023-05-14T12:16:19.982Z,253.00
2023-05-14T12:17:19.911Z,252.00
2023-05-14T12:18:24.704Z,254.00
2023-05-14T12:19:20.986Z,255.00
2023-05-14T12:20:19.918Z,257.00
2023-05-14T12:21:19.914Z,259.00
2023-05-14T12:22:19.892Z,260.00
2023-05-14T12:23:19.937Z,257.00
2023-05-14T12:24:19.946Z,255.00
2023-05-14T12:25:19.904Z,257.00
2023-05-14T12:26:19.909Z,257.00
2023-05-14T12:27:19.878Z,258.00
2023-05-14T12:28:19.854Z,256.00